Terminal Aerodrome Forecast
Issued by NWS Anchorage, AK

Home | Current Version | Previous Version | Text Only | Print | Product List | Glossary On
Versions: 1 2 3 4 5 6 7 8 9 10 11 12 13 14 15 16 17 18 19 20 21 22 23 24 25
000
FTAK31 PANC 252008 AAB
TAFANC
TAF AMD
PANC 252008Z 2520/2624 VRB05KT 4SM -SHRA BKN003 OVC010
     FM252200 22005KT P6SM -SHRA FEW010 SCT025 BKN050
     FM261400 VRB02KT P6SM VCFG FEW005 SCT015=

USA.gov is the U.S. government's official web portal to all federal, state and local government web resources and services.